sensor_id;sensor_type;location;lat;lon;timestamp;pressure;altitude;pressure_sealevel;temperature;humidity
31585;BME280;18191;51.288;12.390;2023-04-28T00:03:04;48889.50;;;-144.47;56.99
31585;BME280;18191;51.288;12.390;2023-04-28T00:07:54;48905.41;;;-144.47;57.25
31585;BME280;18191;51.288;12.390;2023-04-28T00:12:44;48889.50;;;-144.47;57.69
31585;BME280;18191;51.288;12.390;2023-04-28T00:17:35;48905.41;;;-144.47;57.58
31585;BME280;18191;51.288;12.390;2023-04-28T00:22:25;48895.44;;;-144.47;57.14
31585;BME280;18191;51.288;12.390;2023-04-28T00:27:15;48901.41;;;-144.47;58.58
31585;BME280;18191;51.288;12.390;2023-04-28T00:32:05;48921.31;;;-144.47;57.11
31585;BME280;18191;51.288;12.390;2023-04-28T00:36:56;48909.38;;;-144.47;58.25
31585;BME280;18191;51.288;12.390;2023-04-28T00:41:46;48929.28;;;-144.47;57.15
31585;BME280;18191;51.288;12.390;2023-04-28T00:46:36;48929.28;;;-144.47;57.60
31585;BME280;18191;51.288;12.390;2023-04-28T00:51:26;48903.41;;;-144.47;57.33
31585;BME280;18191;51.288;12.390;2023-04-28T00:56:18;48901.41;;;-144.47;57.36
31585;BME280;18191;51.288;12.390;2023-04-28T01:01:08;48925.28;;;-144.47;57.42
31585;BME280;18191;51.288;12.390;2023-04-28T01:05:59;48907.38;;;-144.47;57.44
31585;BME280;18191;51.288;12.390;2023-04-28T01:10:49;48917.34;;;-144.47;57.25
31585;BME280;18191;51.288;12.390;2023-04-28T01:15:39;48915.34;;;-144.47;57.02
31585;BME280;18191;51.288;12.390;2023-04-28T01:20:29;48931.25;;;-144.47;56.36
31585;BME280;18191;51.288;12.390;2023-04-28T01:25:20;48901.41;;;-144.47;56.72
31585;BME280;18191;51.288;12.390;2023-04-28T01:30:10;48917.34;;;-144.47;56.02
31585;BME280;18191;51.288;12.390;2023-04-28T01:35:00;48923.31;;;-144.47;55.61
31585;BME280;18191;51.288;12.390;2023-04-28T01:39:50;48885.50;;;-144.47;55.74
31585;BME280;18191;51.288;12.390;2023-04-28T01:44:41;48889.50;;;-144.47;54.83
31585;BME280;18191;51.288;12.390;2023-04-28T01:49:31;48897.44;;;-144.47;54.61
31585;BME280;18191;51.288;12.390;2023-04-28T01:54:21;48933.25;;;-144.47;54.37
31585;BME280;18191;51.288;12.390;2023-04-28T01:59:11;48901.41;;;-144.47;54.78
31585;BME280;18191;51.288;12.390;2023-04-28T02:04:01;48915.34;;;-144.47;54.45
31585;BME280;18191;51.288;12.390;2023-04-28T02:08:52;48923.31;;;-144.47;55.45
31585;BME280;18191;51.288;12.390;2023-04-28T02:13:42;48933.25;;;-144.47;54.01
31585;BME280;18191;51.288;12.390;2023-04-28T02:18:32;48909.38;;;-144.47;55.12
31585;BME280;18191;51.288;12.390;2023-04-28T02:23:24;48905.41;;;-144.47;55.58
31585;BME280;18191;51.288;12.390;2023-04-28T02:28:15;48881.53;;;-144.47;55.02
31585;BME280;18191;51.288;12.390;2023-04-28T02:33:05;48893.47;;;-144.47;55.80
31585;BME280;18191;51.288;12.390;2023-04-28T02:37:55;48919.31;;;-144.47;55.27
31585;BME280;18191;51.288;12.390;2023-04-28T02:42:45;48857.66;;;-144.47;56.19
31585;BME280;18191;51.288;12.390;2023-04-28T02:47:35;48897.44;;;-144.47;55.70
31585;BME280;18191;51.288;12.390;2023-04-28T02:52:26;48881.53;;;-144.47;55.63
31585;BME280;18191;51.288;12.390;2023-04-28T02:57:16;48929.28;;;-144.47;55.15
31585;BME280;18191;51.288;12.390;2023-04-28T03:02:06;48895.44;;;-144.47;55.81
31585;BME280;18191;51.288;12.390;2023-04-28T03:06:58;48897.44;;;-144.47;56.04
31585;BME280;18191;51.288;12.390;2023-04-28T03:11:48;48877.56;;;-144.47;55.37
31585;BME280;18191;51.288;12.390;2023-04-28T03:16:38;48897.44;;;-144.47;54.81
31585;BME280;18191;51.288;12.390;2023-04-28T03:21:28;48917.34;;;-144.47;55.47
31585;BME280;18191;51.288;12.390;2023-04-28T03:26:19;48901.41;;;-144.47;54.85
31585;BME280;18191;51.288;12.390;2023-04-28T03:31:09;48885.50;;;-144.47;54.64
31585;BME280;18191;51.288;12.390;2023-04-28T03:36:00;48861.63;;;-144.47;54.79
31585;BME280;18191;51.288;12.390;2023-04-28T03:40:50;48889.50;;;-144.47;54.42
31585;BME280;18191;51.288;12.390;2023-04-28T03:45:40;48857.66;;;-144.47;54.24
31585;BME280;18191;51.288;12.390;2023-04-28T03:50:30;48933.25;;;-144.47;54.41
31585;BME280;18191;51.288;12.390;2023-04-28T03:55:21;48895.44;;;-144.47;55.12
31585;BME280;18191;51.288;12.390;2023-04-28T04:00:11;48897.44;;;-144.47;54.46
31585;BME280;18191;51.288;12.390;2023-04-28T04:05:02;48901.41;;;-144.47;55.77
31585;BME280;18191;51.288;12.390;2023-04-28T04:09:52;48877.56;;;-144.47;55.91
31585;BME280;18191;51.288;12.390;2023-04-28T04:14:42;48907.38;;;-144.47;55.52
31585;BME280;18191;51.288;12.390;2023-04-28T04:19:32;48881.53;;;-144.47;55.87
31585;BME280;18191;51.288;12.390;2023-04-28T04:24:23;48881.53;;;-144.47;56.06
31585;BME280;18191;51.288;12.390;2023-04-28T04:29:13;48921.31;;;-144.47;54.98
31585;BME280;18191;51.288;12.390;2023-04-28T04:34:03;48905.41;;;-144.47;54.95
31585;BME280;18191;51.288;12.390;2023-04-28T04:38:53;48893.47;;;-144.47;54.78
31585;BME280;18191;51.288;12.390;2023-04-28T04:43:43;48893.47;;;-144.47;54.11
31585;BME280;18191;51.288;12.390;2023-04-28T04:48:33;48905.41;;;-144.47;53.18
31585;BME280;18191;51.288;12.390;2023-04-28T04:53:24;48873.56;;;-144.47;53.87
31585;BME280;18191;51.288;12.390;2023-04-28T04:58:14;48881.53;;;-144.47;53.98
31585;BME280;18191;51.288;12.390;2023-04-28T05:03:05;48887.50;;;-144.47;52.69
31585;BME280;18191;51.288;12.390;2023-04-28T05:07:55;48889.50;;;-144.47;51.10
31585;BME280;18191;51.288;12.390;2023-04-28T05:12:45;48897.44;;;-144.47;51.54
31585;BME280;18191;51.288;12.390;2023-04-28T05:17:35;48897.44;;;-144.47;50.24
31585;BME280;18191;51.288;12.390;2023-04-28T05:22:25;48869.59;;;-144.47;49.56
31585;BME280;18191;51.288;12.390;2023-04-28T05:27:17;48893.47;;;-144.47;48.93
31585;BME280;18191;51.288;12.390;2023-04-28T05:32:07;48879.53;;;-144.47;49.51
31585;BME280;18191;51.288;12.390;2023-04-28T05:36:57;48907.38;;;-144.47;47.84
31585;BME280;18191;51.288;12.390;2023-04-28T05:41:47;48921.31;;;-144.47;48.14
31585;BME280;18191;51.288;12.390;2023-04-28T05:46:38;48883.53;;;-144.47;47.50
31585;BME280;18191;51.288;12.390;2023-04-28T05:51:28;48873.56;;;-144.47;47.78
31585;BME280;18191;51.288;12.390;2023-04-28T05:56:18;48869.59;;;-144.47;48.74
31585;BME280;18191;51.288;12.390;2023-04-28T06:01:09;48869.59;;;-144.47;47.34
31585;BME280;18191;51.288;12.390;2023-04-28T06:05:59;48873.56;;;-144.47;46.65
31585;BME280;18191;51.288;12.390;2023-04-28T06:10:49;48929.28;;;-144.47;47.68
31585;BME280;18191;51.288;12.390;2023-04-28T06:15:40;48897.44;;;-144.47;47.01
31585;BME280;18191;51.288;12.390;2023-04-28T06:20:30;48911.38;;;-144.47;46.47
31585;BME280;18191;51.288;12.390;2023-04-28T06:25:20;48901.41;;;-144.47;47.13
31585;BME280;18191;51.288;12.390;2023-04-28T06:30:16;48897.44;;;-144.47;45.22
31585;BME280;18191;51.288;12.390;2023-04-28T06:35:06;48861.63;;;-144.47;44.71
31585;BME280;18191;51.288;12.390;2023-04-28T06:39:56;48873.56;;;-144.47;43.48
31585;BME280;18191;51.288;12.390;2023-04-28T06:44:46;48881.53;;;-144.47;44.01
31585;BME280;18191;51.288;12.390;2023-04-28T06:49:37;48899.44;;;-144.47;44.69
31585;BME280;18191;51.288;12.390;2023-04-28T06:54:27;48865.63;;;-144.47;44.94
31585;BME280;18191;51.288;12.390;2023-04-28T06:59:17;48851.69;;;-144.47;43.77
31585;BME280;18191;51.288;12.390;2023-04-28T07:04:07;48831.81;;;-144.47;43.74
31585;BME280;18191;51.288;12.390;2023-04-28T07:08:57;48849.69;;;-144.47;41.99
31585;BME280;18191;51.288;12.390;2023-04-28T07:13:48;48825.84;;;-144.47;42.65
31585;BME280;18191;51.288;12.390;2023-04-28T07:18:40;48845.72;;;-144.47;42.62
31585;BME280;18191;51.288;12.390;2023-04-28T07:23:30;48853.69;;;-144.47;42.72
31585;BME280;18191;51.288;12.390;2023-04-28T07:28:20;48835.78;;;-144.47;42.73
31585;BME280;18191;51.288;12.390;2023-04-28T07:33:11;48865.63;;;-144.47;42.64
31585;BME280;18191;51.288;12.390;2023-04-28T07:38:01;48859.66;;;-144.47;41.20
31585;BME280;18191;51.288;12.390;2023-04-28T07:42:51;48841.75;;;-144.47;41.55
31585;BME280;18191;51.288;12.390;2023-04-28T07:47:41;48849.69;;;-144.47;42.44
31585;BME280;18191;51.288;12.390;2023-04-28T07:52:32;48843.72;;;-144.47;41.55
31585;BME280;18191;51.288;12.390;2023-04-28T07:57:22;48867.59;;;-144.47;41.57
31585;BME280;18191;51.288;12.390;2023-04-28T08:02:12;48877.56;;;-144.47;40.34
31585;BME280;18191;51.288;12.390;2023-04-28T08:07:04;48869.59;;;-144.47;41.33
31585;BME280;18191;51.288;12.390;2023-04-28T08:11:54;48849.69;;;-144.47;41.26
31585;BME280;18191;51.288;12.390;2023-04-28T08:16:44;48837.78;;;-144.47;43.40
31585;BME280;18191;51.288;12.390;2023-04-28T08:21:35;48851.69;;;-144.47;44.40
31585;BME280;18191;51.288;12.390;2023-04-28T08:26:25;48833.78;;;-144.47;43.39
31585;BME280;18191;51.288;12.390;2023-04-28T08:31:15;48849.69;;;-144.47;43.20
31585;BME280;18191;51.288;12.390;2023-04-28T08:36:06;48897.44;;;-144.47;43.31
31585;BME280;18191;51.288;12.390;2023-04-28T08:40:56;48883.53;;;-144.47;41.84
31585;BME280;18191;51.288;12.390;2023-04-28T08:45:47;48845.72;;;-144.47;41.86
31585;BME280;18191;51.288;12.390;2023-04-28T08:50:37;48833.78;;;-144.47;43.64
31585;BME280;18191;51.288;12.390;2023-04-28T08:55:29;48829.81;;;-144.47;44.07
31585;BME280;18191;51.288;12.390;2023-04-28T09:00:19;48873.56;;;-144.47;47.00
31585;BME280;18191;51.288;12.390;2023-04-28T09:05:10;48885.50;;;-144.47;48.02
31585;BME280;18191;51.288;12.390;2023-04-28T09:10:17;48849.69;;;-144.47;52.10
31585;BME280;18191;51.288;12.390;2023-04-28T09:15:07;48871.59;;;-144.47;52.34
31585;BME280;18191;51.288;12.390;2023-04-28T09:19:58;48881.53;;;-144.47;51.72
31585;BME280;18191;51.288;12.390;2023-04-28T09:24:48;48885.50;;;-144.47;55.19
31585;BME280;18191;51.288;12.390;2023-04-28T09:29:47;48853.69;;;-144.47;55.80
31585;BME280;18191;51.288;12.390;2023-04-28T09:34:50;48861.63;;;-144.47;59.29
31585;BME280;18191;51.288;12.390;2023-04-28T09:39:40;48913.34;;;-144.47;56.37
31585;BME280;18191;51.288;12.390;2023-04-28T09:44:30;48861.63;;;-144.47;56.21
31585;BME280;18191;51.288;12.390;2023-04-28T09:49:21;48897.44;;;-144.47;57.17
31585;BME280;18191;51.288;12.390;2023-04-28T09:54:11;48881.53;;;-144.47;57.69
31585;BME280;18191;51.288;12.390;2023-04-28T09:59:01;48919.31;;;-144.47;57.35
31585;BME280;18191;51.288;12.390;2023-04-28T10:03:52;48873.56;;;-144.47;60.97
31585;BME280;18191;51.288;12.390;2023-04-28T10:08:42;48913.34;;;-144.47;60.39
31585;BME280;18191;51.288;12.390;2023-04-28T10:13:34;48865.63;;;-144.47;61.06
31585;BME280;18191;51.288;12.390;2023-04-28T10:18:25;48879.53;;;-144.47;61.29
31585;BME280;18191;51.288;12.390;2023-04-28T10:28:18;48837.78;;;-144.47;60.11
31585;BME280;18191;51.288;12.390;2023-04-28T10:38:02;48901.41;;;-144.47;60.06
31585;BME280;18191;51.288;12.390;2023-04-28T10:42:54;48907.38;;;-144.47;61.15
31585;BME280;18191;51.288;12.390;2023-04-28T10:47:58;48893.47;;;-144.47;61.29
31585;BME280;18191;51.288;12.390;2023-04-28T10:52:52;48865.63;;;-144.47;61.25
31585;BME280;18191;51.288;12.390;2023-04-28T10:57:42;48945.19;;;-144.47;60.49
31585;BME280;18191;51.288;12.390;2023-04-28T11:02:36;48875.56;;;-144.47;62.58
31585;BME280;18191;51.288;12.390;2023-04-28T11:07:27;48841.75;;;-144.47;65.17
31585;BME280;18191;51.288;12.390;2023-04-28T11:12:18;48901.41;;;-144.47;66.96
31585;BME280;18191;51.288;12.390;2023-04-28T11:17:09;48905.41;;;-144.47;66.35
31585;BME280;18191;51.288;12.390;2023-04-28T11:22:01;48917.34;;;-144.47;69.56
31585;BME280;18191;51.288;12.390;2023-04-28T11:26:51;48937.22;;;-144.47;66.76
31585;BME280;18191;51.288;12.390;2023-04-28T11:31:49;48901.41;;;-144.47;68.15
31585;BME280;18191;51.288;12.390;2023-04-28T11:36:42;48913.34;;;-144.47;69.03
31585;BME280;18191;51.288;12.390;2023-04-28T11:41:35;48869.59;;;-144.47;68.43
31585;BME280;18191;51.288;12.390;2023-04-28T11:46:26;48917.34;;;-144.47;66.57
31585;BME280;18191;51.288;12.390;2023-04-28T11:56:18;48909.38;;;-144.47;65.40
31585;BME280;18191;51.288;12.390;2023-04-28T12:01:09;48941.19;;;-144.47;64.84
31585;BME280;18191;51.288;12.390;2023-04-28T12:06:00;48905.41;;;-144.47;64.89
31585;BME280;18191;51.288;12.390;2023-04-28T12:11:06;48927.28;;;-144.47;63.70
31585;BME280;18191;51.288;12.390;2023-04-28T12:15:57;48905.41;;;-144.47;62.53
31585;BME280;18191;51.288;12.390;2023-04-28T12:20:50;48917.34;;;-144.47;59.11
31585;BME280;18191;51.288;12.390;2023-04-28T12:25:44;48895.44;;;-144.47;60.84
31585;BME280;18191;51.288;12.390;2023-04-28T12:30:35;48887.50;;;-144.47;58.33
31585;BME280;18191;51.288;12.390;2023-04-28T12:35:46;48925.28;;;-144.47;57.67
31585;BME280;18191;51.288;12.390;2023-04-28T12:40:37;48901.41;;;-144.47;58.83
31585;BME280;18191;51.288;12.390;2023-04-28T12:45:28;48913.34;;;-144.47;57.20
31585;BME280;18191;51.288;12.390;2023-04-28T12:50:19;48901.41;;;-144.47;60.08
31585;BME280;18191;51.288;12.390;2023-04-28T12:55:09;48909.38;;;-144.47;57.67
31585;BME280;18191;51.288;12.390;2023-04-28T13:00:01;48899.44;;;-144.47;58.63
31585;BME280;18191;51.288;12.390;2023-04-28T13:04:52;48873.56;;;-144.47;57.88
31585;BME280;18191;51.288;12.390;2023-04-28T13:09:42;48917.34;;;-144.47;59.04
31585;BME280;18191;51.288;12.390;2023-04-28T13:14:32;48921.31;;;-144.47;58.09
31585;BME280;18191;51.288;12.390;2023-04-28T13:19:23;48905.41;;;-144.47;59.36
31585;BME280;18191;51.288;12.390;2023-04-28T13:24:13;48881.53;;;-144.47;60.05
31585;BME280;18191;51.288;12.390;2023-04-28T13:29:03;48909.38;;;-144.47;59.05
31585;BME280;18191;51.288;12.390;2023-04-28T13:33:53;48885.50;;;-144.47;56.10
31585;BME280;18191;51.288;12.390;2023-04-28T13:38:44;48913.34;;;-144.47;56.76
31585;BME280;18191;51.288;12.390;2023-04-28T13:43:37;48929.28;;;-144.47;56.66
31585;BME280;18191;51.288;12.390;2023-04-28T13:48:27;48915.34;;;-144.47;56.24
31585;BME280;18191;51.288;12.390;2023-04-28T13:53:18;48915.34;;;-144.47;56.21
31585;BME280;18191;51.288;12.390;2023-04-28T13:58:08;48905.41;;;-144.47;55.97
31585;BME280;18191;51.288;12.390;2023-04-28T14:02:58;48911.38;;;-144.47;55.90
31585;BME280;18191;51.288;12.390;2023-04-28T14:07:49;48909.38;;;-144.47;56.60
31585;BME280;18191;51.288;12.390;2023-04-28T14:12:39;48921.31;;;-144.47;54.56
31585;BME280;18191;51.288;12.390;2023-04-28T14:17:29;48883.53;;;-144.47;55.21
31585;BME280;18191;51.288;12.390;2023-04-28T14:22:21;48873.56;;;-144.47;55.71
31585;BME280;18191;51.288;12.390;2023-04-28T14:27:11;48861.63;;;-144.47;56.22
31585;BME280;18191;51.288;12.390;2023-04-28T14:32:01;48905.41;;;-144.47;58.16
31585;BME280;18191;51.288;12.390;2023-04-28T14:36:52;48889.50;;;-144.47;59.27
31585;BME280;18191;51.288;12.390;2023-04-28T14:41:42;48905.41;;;-144.47;58.25
31585;BME280;18191;51.288;12.390;2023-04-28T14:46:32;48901.41;;;-144.47;57.21
31585;BME280;18191;51.288;12.390;2023-04-28T14:51:22;48891.47;;;-144.47;55.67
31585;BME280;18191;51.288;12.390;2023-04-28T14:56:13;48909.38;;;-144.47;55.65
31585;BME280;18191;51.288;12.390;2023-04-28T15:01:03;48883.53;;;-144.47;56.13
31585;BME280;18191;51.288;12.390;2023-04-28T15:05:53;48905.41;;;-144.47;57.64
31585;BME280;18191;51.288;12.390;2023-04-28T15:10:43;48897.44;;;-144.47;58.05
31585;BME280;18191;51.288;12.390;2023-04-28T15:15:35;48905.41;;;-144.47;58.25
31585;BME280;18191;51.288;12.390;2023-04-28T15:20:26;48893.47;;;-144.47;58.38
31585;BME280;18191;51.288;12.390;2023-04-28T15:25:18;48909.38;;;-144.47;57.85
31585;BME280;18191;51.288;12.390;2023-04-28T15:30:10;48929.28;;;-144.47;58.94
31585;BME280;18191;51.288;12.390;2023-04-28T15:35:00;48901.41;;;-144.47;59.89
31585;BME280;18191;51.288;12.390;2023-04-28T15:39:53;48873.56;;;-144.47;59.83
31585;BME280;18191;51.288;12.390;2023-04-28T15:44:43;48917.34;;;-144.47;58.52
31585;BME280;18191;51.288;12.390;2023-04-28T15:49:33;48899.44;;;-144.47;59.71
31585;BME280;18191;51.288;12.390;2023-04-28T15:54:23;48941.19;;;-144.47;59.62
31585;BME280;18191;51.288;12.390;2023-04-28T15:59:13;48879.53;;;-144.47;60.78
31585;BME280;18191;51.288;12.390;2023-04-28T16:04:06;48905.41;;;-144.47;61.62
31585;BME280;18191;51.288;12.390;2023-04-28T16:08:57;48933.25;;;-144.47;61.93
31585;BME280;18191;51.288;12.390;2023-04-28T16:13:47;48873.56;;;-144.47;62.08
31585;BME280;18191;51.288;12.390;2023-04-28T16:18:38;48893.47;;;-144.47;62.04
31585;BME280;18191;51.288;12.390;2023-04-28T16:23:28;48909.38;;;-144.47;61.39
31585;BME280;18191;51.288;12.390;2023-04-28T16:28:18;48867.59;;;-144.47;61.72
31585;BME280;18191;51.288;12.390;2023-04-28T16:33:08;48933.25;;;-144.47;61.13
31585;BME280;18191;51.288;12.390;2023-04-28T16:37:58;48925.28;;;-144.47;62.34
31585;BME280;18191;51.288;12.390;2023-04-28T16:42:48;48901.41;;;-144.47;62.45
31585;BME280;18191;51.288;12.390;2023-04-28T16:47:39;48941.19;;;-144.47;62.96
31585;BME280;18191;51.288;12.390;2023-04-28T16:52:31;48953.13;;;-144.47;63.21
31585;BME280;18191;51.288;12.390;2023-04-28T16:57:22;48933.25;;;-144.47;62.84
31585;BME280;18191;51.288;12.390;2023-04-28T17:02:12;48925.28;;;-144.47;63.24
31585;BME280;18191;51.288;12.390;2023-04-28T17:07:02;48919.31;;;-144.47;63.74
31585;BME280;18191;51.288;12.390;2023-04-28T17:11:54;48921.31;;;-144.47;64.58
31585;BME280;18191;51.288;12.390;2023-04-28T17:16:44;48905.41;;;-144.47;64.13
31585;BME280;18191;51.288;12.390;2023-04-28T17:21:34;48885.50;;;-144.47;64.56
31585;BME280;18191;51.288;12.390;2023-04-28T17:26:28;48935.25;;;-144.47;64.59
31585;BME280;18191;51.288;12.390;2023-04-28T17:31:19;48909.38;;;-144.47;65.37
31585;BME280;18191;51.288;12.390;2023-04-28T17:36:09;48951.16;;;-144.47;65.20
31585;BME280;18191;51.288;12.390;2023-04-28T17:41:00;48953.13;;;-144.47;66.01
31585;BME280;18191;51.288;12.390;2023-04-28T17:45:51;48921.31;;;-144.47;65.62
31585;BME280;18191;51.288;12.390;2023-04-28T17:50:43;48901.41;;;-144.47;66.33
31585;BME280;18191;51.288;12.390;2023-04-28T17:55:33;48913.34;;;-144.47;66.91
31585;BME280;18191;51.288;12.390;2023-04-28T18:00:23;48949.16;;;-144.47;67.34
31585;BME280;18191;51.288;12.390;2023-04-28T18:05:13;48913.34;;;-144.47;68.74
31585;BME280;18191;51.288;12.390;2023-04-28T18:10:06;48945.19;;;-144.47;69.70
31585;BME280;18191;51.288;12.390;2023-04-28T18:14:56;48897.44;;;-144.47;70.49
31585;BME280;18191;51.288;12.390;2023-04-28T18:19:46;48897.44;;;-144.47;71.03
31585;BME280;18191;51.288;12.390;2023-04-28T18:24:40;48935.25;;;-144.47;71.63
31585;BME280;18191;51.288;12.390;2023-04-28T18:29:30;48949.16;;;-144.47;71.57
31585;BME280;18191;51.288;12.390;2023-04-28T18:34:20;48881.53;;;-144.47;71.20
31585;BME280;18191;51.288;12.390;2023-04-28T18:39:11;48917.34;;;-144.47;71.91
31585;BME280;18191;51.288;12.390;2023-04-28T18:44:01;48953.13;;;-144.47;72.69
31585;BME280;18191;51.288;12.390;2023-04-28T18:48:52;48921.31;;;-144.47;73.21
31585;BME280;18191;51.288;12.390;2023-04-28T18:53:42;48941.19;;;-144.47;73.23
31585;BME280;18191;51.288;12.390;2023-04-28T18:58:32;48917.34;;;-144.47;74.07
31585;BME280;18191;51.288;12.390;2023-04-28T19:03:23;48955.13;;;-144.47;73.59
31585;BME280;18191;51.288;12.390;2023-04-28T19:08:14;48913.34;;;-144.47;73.72
31585;BME280;18191;51.288;12.390;2023-04-28T19:13:05;48909.38;;;-144.47;74.97
31585;BME280;18191;51.288;12.390;2023-04-28T19:17:55;48915.34;;;-144.47;76.14
31585;BME280;18191;51.288;12.390;2023-04-28T19:22:46;48933.25;;;-144.47;74.84
31585;BME280;18191;51.288;12.390;2023-04-28T19:27:37;48973.03;;;-144.47;76.07
31585;BME280;18191;51.288;12.390;2023-04-28T19:32:28;48937.22;;;-144.47;76.79
31585;BME280;18191;51.288;12.390;2023-04-28T19:37:18;48957.13;;;-144.47;76.47
31585;BME280;18191;51.288;12.390;2023-04-28T19:42:09;48935.25;;;-144.47;76.02
31585;BME280;18191;51.288;12.390;2023-04-28T19:47:01;48953.13;;;-144.47;75.97
31585;BME280;18191;51.288;12.390;2023-04-28T19:51:51;48951.16;;;-144.47;76.29
31585;BME280;18191;51.288;12.390;2023-04-28T19:56:43;48911.38;;;-144.47;78.10
31585;BME280;18191;51.288;12.390;2023-04-28T20:01:33;48955.13;;;-144.47;78.88
31585;BME280;18191;51.288;12.390;2023-04-28T20:06:23;48963.09;;;-144.47;79.37
31585;BME280;18191;51.288;12.390;2023-04-28T20:11:14;48933.25;;;-144.47;80.11
31585;BME280;18191;51.288;12.390;2023-04-28T20:16:06;48925.28;;;-144.47;79.56
31585;BME280;18191;51.288;12.390;2023-04-28T20:20:56;48949.16;;;-144.47;80.52
31585;BME280;18191;51.288;12.390;2023-04-28T20:25:46;48988.94;;;-144.47;80.92
31585;BME280;18191;51.288;12.390;2023-04-28T20:30:40;48973.03;;;-144.47;81.30
31585;BME280;18191;51.288;12.390;2023-04-28T20:35:31;48945.19;;;-144.47;81.40
31585;BME280;18191;51.288;12.390;2023-04-28T20:40:21;48957.13;;;-144.47;81.03
31585;BME280;18191;51.288;12.390;2023-04-28T20:45:11;48939.22;;;-144.47;80.95
31585;BME280;18191;51.288;12.390;2023-04-28T20:50:02;48945.19;;;-144.47;81.41
31585;BME280;18191;51.288;12.390;2023-04-28T20:54:52;48937.22;;;-144.47;81.32
31585;BME280;18191;51.288;12.390;2023-04-28T20:59:43;48957.13;;;-144.47;81.15
31585;BME280;18191;51.288;12.390;2023-04-28T21:04:33;48957.13;;;-144.47;81.28
31585;BME280;18191;51.288;12.390;2023-04-28T21:09:23;48949.16;;;-144.47;81.90
31585;BME280;18191;51.288;12.390;2023-04-28T21:14:15;48977.00;;;-144.47;81.72
31585;BME280;18191;51.288;12.390;2023-04-28T21:19:06;48953.13;;;-144.47;81.47
31585;BME280;18191;51.288;12.390;2023-04-28T21:23:57;48969.06;;;-144.47;81.91
31585;BME280;18191;51.288;12.390;2023-04-28T21:28:48;48981.00;;;-144.47;82.58
31585;BME280;18191;51.288;12.390;2023-04-28T21:33:40;48969.06;;;-144.47;83.58
31585;BME280;18191;51.288;12.390;2023-04-28T21:38:30;48945.19;;;-144.47;84.69
31585;BME280;18191;51.288;12.390;2023-04-28T21:43:20;48903.41;;;-144.47;84.49
31585;BME280;18191;51.288;12.390;2023-04-28T21:48:11;48996.91;;;-144.47;85.49
31585;BME280;18191;51.288;12.390;2023-04-28T21:53:02;48957.13;;;-144.47;85.05
31585;BME280;18191;51.288;12.390;2023-04-28T21:57:52;48973.03;;;-144.47;85.62
31585;BME280;18191;51.288;12.390;2023-04-28T22:02:43;48973.03;;;-144.47;86.03
31585;BME280;18191;51.288;12.390;2023-04-28T22:07:33;48905.41;;;-144.47;86.87
31585;BME280;18191;51.288;12.390;2023-04-28T22:12:23;48953.13;;;-144.47;86.26
31585;BME280;18191;51.288;12.390;2023-04-28T22:17:13;48941.19;;;-144.47;87.26
31585;BME280;18191;51.288;12.390;2023-04-28T22:22:04;48963.09;;;-144.47;88.33
31585;BME280;18191;51.288;12.390;2023-04-28T22:26:55;48992.94;;;-144.47;87.50
31585;BME280;18191;51.288;12.390;2023-04-28T22:31:46;48973.03;;;-144.47;86.88
31585;BME280;18191;51.288;12.390;2023-04-28T22:36:37;48977.00;;;-144.47;86.35
31585;BME280;18191;51.288;12.390;2023-04-28T22:41:27;48967.06;;;-144.47;86.59
31585;BME280;18191;51.288;12.390;2023-04-28T22:46:17;48949.16;;;-144.47;86.87
31585;BME280;18191;51.288;12.390;2023-04-28T22:51:07;48977.00;;;-144.47;86.78
31585;BME280;18191;51.288;12.390;2023-04-28T22:55:58;48913.34;;;-144.47;87.79
31585;BME280;18191;51.288;12.390;2023-04-28T23:00:51;48937.22;;;-144.47;87.79
31585;BME280;18191;51.288;12.390;2023-04-28T23:05:42;48957.13;;;-144.47;88.12
31585;BME280;18191;51.288;12.390;2023-04-28T23:10:32;48973.03;;;-144.47;89.18
31585;BME280;18191;51.288;12.390;2023-04-28T23:15:22;48955.13;;;-144.47;88.56
31585;BME280;18191;51.288;12.390;2023-04-28T23:20:12;48961.09;;;-144.47;87.82
31585;BME280;18191;51.288;12.390;2023-04-28T23:25:03;48925.28;;;-144.47;88.39
31585;BME280;18191;51.288;12.390;2023-04-28T23:29:53;48981.00;;;-144.47;88.28
31585;BME280;18191;51.288;12.390;2023-04-28T23:34:43;48941.19;;;-144.47;89.31
31585;BME280;18191;51.288;12.390;2023-04-28T23:39:33;48969.06;;;-144.47;89.49
31585;BME280;18191;51.288;12.390;2023-04-28T23:44:23;49012.81;;;-144.47;88.87
31585;BME280;18191;51.288;12.390;2023-04-28T23:49:14;48981.00;;;-144.47;89.14
31585;BME280;18191;51.288;12.390;2023-04-28T23:54:05;48977.00;;;-144.47;88.88
31585;BME280;18191;51.288;12.390;2023-04-28T23:58:55;48963.09;;;-144.47;87.92
